Flight Track Log - Related Links

Times and Time Zones

All times are in EDT time to prevent confusion due to time zone crossing. See the OPT429 flight status page for this flight to view local times or setup timezone preferences in your user account.

Time Position Orientation Groundspeed Altitude Reporting Facility
EDT Latitude Longitude Course Direction KTS MPH feet Rate Location/Type
Thu 11:26:45 AM 40.7333 -73.8167 270° West 207 238 2,600  Level New York TRACON
Thu 11:27:45 AM 40.7500 -73.7500 72° East 269 310 4,600 2,500 Climbing New York TRACON
Thu 11:28:45 AM 40.8167 -73.7833 339° North 279 321 7,600 3,053 Climbing New York TRACON
Thu 11:29:39 AM 40.8500 -73.8500 303° West 231 266 10,400 2,895 Climbing New York TRACON
Thu 11:30:39 AM 40.8667 -73.9333 285° West 225 259 13,100 2,100 Climbing New York TRACON
Thu 11:31:39 AM 40.8667 -74.0167 270° West 258 297 14,600 1,000 Climbing New York TRACON
Thu 11:32:00 AM 40.7834 -74.5991 270° West  Level FlightAware Approximate
Thu 11:32:39 AM 40.8500 -74.1500 261° West 332 382 15,100  Level New York TRACON
Thu 11:33:39 AM 40.8500 -74.2667 270° West 355 409 15,400 923 Climbing New York TRACON
Thu 11:34:36 AM 40.8433 -74.3972 266° West 355 409 16,900 821 Climbing New York Center
Thu 11:35:36 AM 40.8378 -74.5094 266° West 379 436 17,000 50 Climbing New York Center
Thu 11:36:36 AM 40.8311 -74.6517 267° West 372 428 17,000  Level New York Center
Thu 11:37:36 AM 40.8253 -74.7667 266° West 360 414 17,000 500 Level New York Center
Thu 11:38:36 AM 40.8039 -74.8997 258° West 354 407 18,000 1,100 Climbing New York Center
Thu 11:39:36 AM 40.7708 -75.0156 249° West 348 400 19,200 1,250 Climbing New York Center
Thu 11:40:36 AM 40.7369 -75.1419 251° West 354 407 20,500 1,300 Climbing New York Center
Thu 11:41:36 AM 40.7011 -75.2656 249° West 369 425 21,800 1,400 Climbing New York Center
Thu 11:42:36 AM 40.6647 -75.3947 250° West 369 425 23,300 1,450 Climbing New York Center
Thu 11:43:36 AM 40.6308 -75.5181 250° West 369 425 24,700 1,450 Climbing New York Center
Thu 11:44:36 AM 40.5944 -75.6414 249° West 369 425 26,200 1,500 Climbing New York Center
Thu 11:45:36 AM 40.5581 -75.7617 248° West 363 418 27,700 1,450 Climbing New York Center
Thu 11:46:36 AM 40.5258 -75.8850 251° West 363 418 29,100 1,500 Climbing New York Center
Thu 11:47:36 AM 40.4850 -76.0047 246° West 368 423 30,700 1,500 Climbing New York Center
Thu 11:48:36 AM 40.4506 -76.1250 249° West 363 418 32,100 1,400 Climbing New York Center
Thu 11:49:36 AM 40.4158 -76.2478 250° West 363 418 33,500 1,250 Climbing New York Center
Thu 11:50:36 AM 40.3950 -76.3769 258° West 363 418 34,600 1,000 Climbing New York Center
Thu 11:51:36 AM 40.3908 -76.5100 268° West 368 423 35,500 900 Climbing New York Center
Thu 11:52:36 AM 40.3900 -76.6517 270° West 375 432 36,400 900 Climbing New York Center
Thu 11:53:36 AM 40.3853 -76.7903 267° West 385 443 37,300 900 Climbing New York Center
Thu 11:54:36 AM 40.3819 -76.9317 268° West 385 443 38,200 800 Climbing New York Center
Thu 11:55:36 AM 40.3842 -77.0492 271° West 385 443 38,900 850 Climbing New York Center
Thu 11:56:36 AM 40.3783 -77.1958 267° West 378 435 39,900 1,022 Climbing New York Center
Thu 11:58:38 AM 40.3747 -77.4758 269° West 368 423 42,000 978 Climbing Cleveland Center
Thu 11:59:40 AM 40.3706 -77.6011 268° West 354 407 42,900 484 Climbing Cleveland Center
Thu 12:00:42 PM 40.3683 -77.7239 269° West 347 399 43,000 48 Climbing Cleveland Center
Thu 12:01:44 PM 40.3650 -77.8492 268° West 344 396 43,000  Level Cleveland Center
Thu 12:02:46 PM 40.3608 -77.9783 268° West 349 402 43,000  Level Cleveland Center
Thu 12:03:48 PM 40.3567 -78.1367 268° West 355 409 43,000  Level Cleveland Center
Thu 12:04:50 PM 40.3525 -78.2722 268° West 367 422 43,000  Level Cleveland Center
Thu 12:05:52 PM 40.3475 -78.4106 267° West 374 430 43,000  Level Cleveland Center
Thu 12:06:54 PM 40.3431 -78.5481 268° West 375 432 43,000  Level Cleveland Center
Thu 12:07:56 PM 40.3381 -78.6881 267° West 381 438 43,000  Level Cleveland Center
Thu 12:08:58 PM 40.3328 -78.8275 267° West 381 438 43,000  Level Cleveland Center
Thu 12:10:00 PM 40.3267 -78.9958 267° West 383 441 43,000  Level Cleveland Center
Thu 12:11:02 PM 40.3225 -79.1356 268° West 385 443 43,000  Level Cleveland Center
Thu 12:12:04 PM 40.3172 -79.2783 267° West 388 447 43,000  Level Cleveland Center
Thu 12:13:06 PM 40.3111 -79.4108 267° West 388 447 43,000  Level Cleveland Center
Thu 12:14:08 PM 40.3056 -79.5522 267° West 388 447 43,000  Level Cleveland Center
Thu 12:15:10 PM 40.2978 -79.7214 267° West 389 448 43,000  Level Cleveland Center
Thu 12:16:13 PM 40.2911 -79.8633 267° West 389 448 43,000  Level Cleveland Center
Thu 12:17:15 PM 40.2839 -80.0056 266° West 389 448 43,000  Level Cleveland Center
Thu 12:18:17 PM 40.2761 -80.1500 266° West 389 448 43,000  Level Cleveland Center
Thu 12:19:19 PM 40.2714 -80.2903 268° West 379 436 43,000  Level Cleveland Center
Thu 12:20:21 PM 40.2653 -80.4253 267° West 370 426 43,000  Level Cleveland Center
Thu 12:21:23 PM 40.2586 -80.5586 266° West 366 421 43,000  Level Cleveland Center
Thu 12:22:25 PM 40.2514 -80.6933 266° West 367 422 43,000  Level Cleveland Center
Thu 12:23:27 PM 40.2439 -80.8514 266° West 364 419 43,000  Level Cleveland Center
Thu 12:24:30 PM 40.2356 -80.9858 265° West 370 426 43,000  Level Cleveland Center
Thu 12:25:32 PM 40.2286 -81.1206 266° West 371 427 43,000  Level Cleveland Center
Thu 12:26:34 PM 40.2211 -81.2564 266° West 372 428 43,000  Level Cleveland Center
Thu 12:27:36 PM 40.2125 -81.3906 265° West 373 429 43,000  Level Cleveland Center
Thu 12:28:38 PM 40.2042 -81.5306 266° West 384 442 43,000  Level Cleveland Center
Thu 12:29:40 PM 40.1950 -81.6981 266° West 386 444 43,000  Level Cleveland Center
Thu 12:30:42 PM 40.1864 -81.8244 265° West 387 445 43,000  Level Cleveland Center
Thu 12:31:40 PM 40.1781 -81.9672 266° West 391 450 43,000  Level Indianapolis Center
Thu 12:32:42 PM 40.1681 -82.1114 265° West 395 455 43,000  Level Indianapolis Center
Thu 12:33:44 PM 40.1589 -82.2561 265° West 397 457 43,000  Level Indianapolis Center
Thu 12:34:45 PM 40.1475 -82.4319 265° West 403 464 43,000  Level Indianapolis Center
Thu 12:35:47 PM 40.1369 -82.5794 265° West 406 467 43,000  Level Indianapolis Center
Thu 12:36:49 PM 40.1275 -82.7272 265° West 406 467 43,000  Level Indianapolis Center
Thu 12:37:50 PM 40.1167 -82.8775 265° West 413 475 43,000  Level Indianapolis Center
Thu 12:38:52 PM 40.1061 -83.0256 265° West 413 475 43,000  Level Indianapolis Center
Thu 12:39:54 PM 40.0961 -83.1736 265° West 413 475 43,000  Level Indianapolis Center
Thu 12:40:56 PM 40.0833 -83.3531 265° West 414 476 43,000  Level Indianapolis Center
Thu 12:41:57 PM 40.0728 -83.5014 265° West 415 478 43,000  Level Indianapolis Center
Thu 12:42:59 PM 40.0614 -83.6497 264° West 415 478 43,000  Level Indianapolis Center
Thu 12:44:01 PM 40.0486 -83.7975 264° West 415 478 43,000  Level Indianapolis Center
Thu 12:45:03 PM 40.0364 -83.9444 264° West 415 478 43,000  Level Indianapolis Center
Thu 12:46:04 PM 40.0217 -84.1242 264° West 415 478 43,000  Level Indianapolis Center
Thu 12:47:06 PM 40.0086 -84.2731 264° West 415 478 43,000  Level Indianapolis Center
Thu 12:48:08 PM 39.9961 -84.4233 264° West 416 479 43,000  Level Indianapolis Center
Thu 12:49:10 PM 39.9850 -84.5725 264° West 416 479 43,000  Level Indianapolis Center
Thu 12:50:12 PM 39.9697 -84.7231 263° West 417 480 43,000  Level Indianapolis Center
Thu 12:51:14 PM 39.9569 -84.8717 264° West 417 480 43,000  Level Indianapolis Center
Thu 12:52:15 PM 39.9439 -85.0356 264° West 417 480 43,000  Level Indianapolis Center
Thu 12:53:17 PM 39.9300 -85.1842 263° West 417 480 43,000  Level Indianapolis Center
Thu 12:54:19 PM 39.9156 -85.3339 263° West 417 480 43,000  Level Indianapolis Center
Thu 12:55:21 PM 39.8989 -85.5117 263° West 416 479 43,000  Level Indianapolis Center
Thu 12:56:23 PM 39.8850 -85.6611 263° West 416 479 43,000  Level Indianapolis Center
Thu 12:57:24 PM 39.8708 -85.8094 263° West 416 479 43,000  Level Indianapolis Center
Thu 12:58:26 PM 39.8558 -85.9575 263° West 416 479 43,000  Level Indianapolis Center
Thu 12:59:28 PM 39.8414 -86.1047 263° West 415 478 43,000  Level Indianapolis Center
Thu 01:00:30 PM 39.8253 -86.2639 263° West 415 478 43,000  Level Indianapolis Center
Thu 01:01:32 PM 39.8042 -86.4272 261° West 421 484 43,000  Level Indianapolis Center
Thu 01:02:33 PM 39.7725 -86.5678 254° West 414 476 43,000  Level Indianapolis Center
Thu 01:03:35 PM 39.7417 -86.7136 255° West 416 479 43,000  Level Indianapolis Center
Thu 01:04:37 PM 39.7108 -86.8578 255° West 417 480 43,000  Level Indianapolis Center
Thu 01:05:39 PM 39.6731 -87.0306 254° West 417 480 43,000  Level Indianapolis Center
Thu 01:06:41 PM 39.6408 -87.1750 254° West 417 480 43,000  Level Indianapolis Center
Thu 01:07:43 PM 39.6100 -87.3194 255° West 417 480 43,000  Level Indianapolis Center
Thu 01:08:44 PM 39.5772 -87.4639 254° West 417 480 43,000  Level Indianapolis Center
Thu 01:09:46 PM 39.5456 -87.6075 254° West 417 480 43,000  Level Indianapolis Center
Thu 01:10:48 PM 39.5133 -87.7508 254° West 417 480 43,000  Level Indianapolis Center
Thu 01:11:50 PM 39.4756 -87.9231 254° West 417 480 43,000  Level Indianapolis Center
Thu 01:12:52 PM 39.4422 -88.0653 253° West 416 479 43,000  Level Indianapolis Center
Thu 01:13:54 PM 39.4081 -88.2100 253° West 417 480 43,000  Level Indianapolis Center
Thu 01:14:56 PM 39.3772 -88.3497 254° West 417 480 43,000  Level Indianapolis Center
Thu 01:15:58 PM 39.3442 -88.4919 253° West 416 479 43,000  Level Indianapolis Center
Thu 01:17:00 PM 39.3103 -88.6336 253° West 416 479 43,000  Level Indianapolis Center
Thu 01:18:02 PM 39.2711 -88.8042 254° West 416 479 43,000  Level Indianapolis Center
Thu 01:19:04 PM 39.2381 -88.9464 253° West 416 479 43,000  Level Indianapolis Center
Thu 01:20:06 PM 39.2042 -89.0886 253° West 416 479 43,000  Level Indianapolis Center
Thu 01:21:08 PM 39.1694 -89.2317 253° West 415 478 43,000  Level Indianapolis Center
Thu 01:22:10 PM 39.1356 -89.3733 253° West 415 478 43,000  Level Indianapolis Center
Thu 01:23:12 PM 39.1014 -89.5133 253° West 415 478 43,000  Level Indianapolis Center
Thu 01:24:32 PM 39.0558 -89.7000 253° West 390 449 43,000  Level Kansas City Center
Thu 01:25:36 PM 39.0231 -89.8306 252° West 386 444 43,000  Level Kansas City Center
Thu 01:26:37 PM 38.9911 -89.9594 252° West 383 441 43,000  Level Kansas City Center
Thu 01:27:41 PM 38.9567 -90.1008 253° West 383 441 43,000  Level Kansas City Center
Thu 01:28:42 PM 38.9244 -90.2269 252° West 375 432 43,000  Level Kansas City Center
Thu 01:29:43 PM 38.8919 -90.3583 252° West 379 436 43,000  Level Kansas City Center
Thu 01:30:46 PM 38.8572 -90.4906 251° West 392 451 43,000  Level Kansas City Center
Thu 01:31:47 PM 38.8061 -90.6406 246° West 384 442 43,000  Level Kansas City Center
Thu 01:32:49 PM 38.7703 -90.7483 247° West 383 441 43,000  Level Kansas City Center
Thu 01:33:51 PM 38.7272 -90.8750 246° West 385 443 43,000  Level Kansas City Center
Thu 01:34:54 PM 38.6872 -91.0358 252° West 394 453 43,000  Level Kansas City Center
Thu 01:35:55 PM 38.6736 -91.1761 263° West 399 459 43,000  Level Kansas City Center
Thu 01:36:59 PM 38.6586 -91.3183 262° West 400 460 43,000  Level Kansas City Center
Thu 01:38:01 PM 38.6414 -91.4789 262° West 402 463 43,000  Level Kansas City Center
Thu 01:39:03 PM 38.6256 -91.6225 262° West 403 464 43,000  Level Kansas City Center
Thu 01:40:03 PM 38.6100 -91.7656 262° West 404 465 43,000  Level Kansas City Center
Thu 01:41:08 PM 38.5942 -91.9072 262° West 404 465 43,000  Level Kansas City Center
Thu 01:42:09 PM 38.5775 -92.0486 261° West 404 465 43,000  Level Kansas City Center
Thu 01:43:09 PM 38.5586 -92.2125 262° West 395 455 43,000  Level Kansas City Center
Thu 01:44:13 PM 38.5433 -92.3461 262° West 387 445 43,000  Level Kansas City Center
Thu 01:45:14 PM 38.5275 -92.4764 261° West 379 436 43,000  Level Kansas City Center
Thu 01:46:18 PM 38.5125 -92.6086 262° West 378 435 43,000  Level Kansas City Center
Thu 01:47:18 PM 38.4964 -92.7417 261° West 378 435 43,000  Level Kansas City Center
Thu 01:48:19 PM 38.4803 -92.8733 261° West 378 435 43,000  Level Kansas City Center
Thu 01:49:23 PM 38.4606 -93.0333 261° West 378 435 43,000  Level Kansas City Center
Thu 01:50:26 PM 38.4444 -93.1653 261° West 378 435 43,000  Level Kansas City Center
Thu 01:51:27 PM 38.4281 -93.2978 261° West 378 435 43,000  Level Kansas City Center
Thu 01:52:30 PM 38.4092 -93.4308 260° West 378 435 43,000  Level Kansas City Center
Thu 01:53:31 PM 38.3936 -93.5639 262° West 379 436 43,000  Level Kansas City Center
Thu 01:54:32 PM 38.3761 -93.6964 260° West 379 436 43,000  Level Kansas City Center
Thu 01:55:36 PM 38.3556 -93.8550 261° West 379 436 43,000  Level Kansas City Center
Thu 01:56:38 PM 38.3375 -93.9872 260° West 379 436 43,000  Level Kansas City Center
Thu 01:57:38 PM 38.3203 -94.1194 261° West 379 436 43,000  Level Kansas City Center
Thu 01:58:42 PM 38.3053 -94.2511 262° West 379 436 43,000  Level Kansas City Center
Thu 01:59:43 PM 38.2886 -94.3828 261° West 378 435 43,000  Level Kansas City Center
Thu 02:00:47 PM 38.2694 -94.5136 259° West 378 435 43,000  Level Kansas City Center
Thu 02:01:48 PM 38.2456 -94.6700 259° West 378 435 43,000  Level Kansas City Center
Thu 02:02:51 PM 38.2231 -94.8011 258° West 379 436 43,000  Level Kansas City Center
Thu 02:03:52 PM 38.2042 -94.9172 258° West 381 438 43,000  Level Kansas City Center
Thu 02:04:55 PM 38.1803 -95.0719 259° West 372 428 43,000  Level Kansas City Center
Thu 02:05:56 PM 38.1578 -95.2061 258° West 373 429 43,000  Level Kansas City Center
Thu 02:06:59 PM 38.1336 -95.3425 257° West 377 434 43,000  Level Kansas City Center
Thu 02:07:59 PM 38.1119 -95.4675 258° West 377 434 43,000  Level Kansas City Center
Thu 02:09:03 PM 38.0889 -95.6033 258° West 377 434 43,000  Level Kansas City Center
Thu 02:10:04 PM 38.0647 -95.7397 257° West 378 435 43,000  Level Kansas City Center
Thu 02:11:08 PM 38.0417 -95.8756 258° West 378 435 43,000  Level Kansas City Center
Thu 02:12:08 PM 38.0186 -96.0117 258° West 378 435 43,000  Level Kansas City Center
Thu 02:13:12 PM 38.0017 -96.1211 259° West 375 432 43,000  Level Kansas City Center
Thu 02:14:13 PM 37.9750 -96.2781 258° West 376 433 43,000  Level Kansas City Center
Thu 02:15:14 PM 37.9536 -96.4069 258° West 376 433 43,000  Level Kansas City Center
Thu 02:16:17 PM 37.9317 -96.5386 258° West 377 434 43,000  Level Kansas City Center
Thu 02:17:20 PM 37.9094 -96.6686 258° West 377 434 43,000  Level Kansas City Center
Thu 02:18:20 PM 37.8875 -96.7994 258° West 378 435 43,000  Level Kansas City Center
Thu 02:19:23 PM 37.8636 -96.9292 257° West 378 435 43,000  Level Kansas City Center
Thu 02:20:24 PM 37.8406 -97.0586 257° West 378 435 43,000  Level Kansas City Center
Thu 02:21:28 PM 37.8122 -97.2167 257° West 381 438 43,000  Level Kansas City Center
Thu 02:22:28 PM 37.7881 -97.3472 257° West 381 438 43,000  Level Kansas City Center
Thu 02:23:31 PM 37.7639 -97.4800 257° West 384 442 43,000  Level Kansas City Center
Thu 02:24:32 PM 37.7383 -97.6114 256° West 383 441 43,000  Level Kansas City Center
Thu 02:25:36 PM 37.7044 -97.7400 252° West 383 441 43,000  Level Kansas City Center
Thu 02:26:38 PM 37.6719 -97.8689 252° West 382 440 43,000  Level Kansas City Center
Thu 02:27:39 PM 37.6394 -97.9983 252° West 382 440 43,000  Level Kansas City Center
Thu 02:28:43 PM 37.6078 -98.1261 253° West 382 440 43,000  Level Kansas City Center
Thu 02:29:44 PM 37.5675 -98.2800 252° West 382 440 43,000  Level Kansas City Center
Thu 02:30:45 PM 37.5350 -98.4083 252° West 382 440 43,000  Level Kansas City Center
Thu 02:31:46 PM 37.5025 -98.5356 252° West 382 440 43,000 -976 Level Kansas City Center
Thu 02:32:48 PM 37.4694 -98.6633 252° West 382 440 41,000 -2,112 Descending Kansas City Center
Thu 02:33:51 PM 37.4381 -98.7872 252° West 380 437 38,600 -2,333 Descending Kansas City Center
Thu 02:34:54 PM 37.4047 -98.9036 250° West 362 417 36,100 -2,613 Descending Kansas City Center
Thu 02:35:55 PM 37.3653 -99.0506 251° West 366 421 33,200 -2,613 Descending Kansas City Center
Thu 02:36:58 PM 37.3314 -99.1778 252° West 379 436 30,700 -2,032 Descending Kansas City Center
Thu 02:37:59 PM 37.2978 -99.3053 252° West 382 440 29,000 -829 Descending Kansas City Center
Thu 02:39:01 PM 37.2647 -99.4283 251° West 378 435 29,000 -96 Level Kansas City Center
Thu 02:40:04 PM 37.2308 -99.5581 252° West 382 440 28,800 -1,016 Descending Kansas City Center
Thu 02:41:05 PM 37.1886 -99.7125 251° West 409 471 26,900 -1,728 Descending Kansas City Center
Thu 02:42:09 PM 37.1508 -99.8503 251° West 427 491 25,200 -1,824 Descending Kansas City Center
Thu 02:43:10 PM 37.1075 -100.0097 251° West 431 496 23,100 -1,935 Descending Kansas City Center
Thu 02:44:13 PM 37.0714 -100.1378 251° West 417 480 21,200 -2,032 Descending Kansas City Center
Thu 02:45:14 PM 37.0344 -100.2756 251° West 381 438 18,900 -1,951 Descending Kansas City Center
Thu 02:46:16 PM 37.0008 -100.3975 251° West 385 443 17,200 -1,872 Descending Kansas City Center
Thu 02:47:19 PM 36.9672 -100.5194 251° West 341 392 15,000 -2,016 Descending Kansas City Center
Thu 02:48:21 PM 36.9386 -100.6211 251° West 331 381 13,000 -1,951 Descending Kansas City Center
Thu 02:49:22 PM 36.9058 -100.7364 250° West 322 371 11,000 -1,571 Descending Kansas City Center
Thu 02:50:27 PM 36.8772 -100.8356 250° West 320 368 9,700 -1,286 Descending Kansas City Center
Thu 02:51:28 PM 36.8503 -100.9347 251° West 319 367 8,300 -1,438 Descending Kansas City Center
Thu 02:52:28 PM 36.8208 -101.0394 251° West 304 350 6,800 -1,113 Descending Kansas City Center
Thu 02:53:32 PM 36.7981 -101.1192 250° West 277 319 6,000 -720 Descending Kansas City Center
Thu 02:54:33 PM 36.7703 -101.2119 250° West 262 302 5,300 -432 Descending Kansas City Center
Thu 02:55:37 PM 36.7447 -101.2983 250° West 266 306 5,100 -96 Descending Kansas City Center
Thu 02:56:38 PM 36.7197 -101.3961 252° West 267 307 5,100  Level Kansas City Center

Login

Don't have an account? Register now (free) for customized features, flight alerts, and more!